sensor_id;sensor_type;location;lat;lon;timestamp;pressure;altitude;pressure_sealevel;temperature;humidity
82171;BME280;71755;48.038;14.346;2023-09-08T00:02:06;97707.91;;;15.49;72.66
82171;BME280;71755;48.038;14.346;2023-09-08T00:04:32;97714.66;;;15.62;71.95
82171;BME280;71755;48.038;14.346;2023-09-08T00:06:58;97711.72;;;15.38;72.78
82171;BME280;71755;48.038;14.346;2023-09-08T00:09:24;97711.66;;;15.53;72.23
82171;BME280;71755;48.038;14.346;2023-09-08T00:11:50;97699.84;;;15.65;72.01
82171;BME280;71755;48.038;14.346;2023-09-08T00:14:17;97707.13;;;15.44;72.33
82171;BME280;71755;48.038;14.346;2023-09-08T00:16:44;97705.78;;;15.11;73.50
82171;BME280;71755;48.038;14.346;2023-09-08T00:19:10;97713.03;;;14.85;74.65
82171;BME280;71755;48.038;14.346;2023-09-08T00:21:37;97707.09;;;14.52;75.93
82171;BME280;71755;48.038;14.346;2023-09-08T00:24:04;97713.56;;;14.82;74.95
82171;BME280;71755;48.038;14.346;2023-09-08T00:26:32;97710.06;;;14.71;75.44
82171;BME280;71755;48.038;14.346;2023-09-08T00:28:58;97712.44;;;14.47;76.19
82171;BME280;71755;48.038;14.346;2023-09-08T00:31:24;97707.97;;;14.88;74.61
82171;BME280;71755;48.038;14.346;2023-09-08T00:33:50;97706.06;;;14.94;74.18
82171;BME280;71755;48.038;14.346;2023-09-08T00:36:15;97705.53;;;15.02;74.01
82171;BME280;71755;48.038;14.346;2023-09-08T00:38:41;97701.22;;;15.06;73.75
82171;BME280;71755;48.038;14.346;2023-09-08T00:41:07;97707.94;;;15.19;72.96
82171;BME280;71755;48.038;14.346;2023-09-08T00:43:33;97704.19;;;14.99;73.80
82171;BME280;71755;48.038;14.346;2023-09-08T00:46:00;97703.91;;;14.81;74.37
82171;BME280;71755;48.038;14.346;2023-09-08T00:48:29;97698.81;;;14.94;73.90
82171;BME280;71755;48.038;14.346;2023-09-08T00:50:56;97705.78;;;14.75;74.42
82171;BME280;71755;48.038;14.346;2023-09-08T00:53:23;97707.38;;;14.71;74.90
82171;BME280;71755;48.038;14.346;2023-09-08T00:55:50;97706.97;;;14.17;76.82
82171;BME280;71755;48.038;14.346;2023-09-08T00:58:17;97715.06;;;13.74;79.08
82171;BME280;71755;48.038;14.346;2023-09-08T01:00:44;97704.91;;;13.76;79.06
82171;BME280;71755;48.038;14.346;2023-09-08T01:03:11;97708.72;;;13.38;80.61
82171;BME280;71755;48.038;14.346;2023-09-08T01:05:38;97719.19;;;13.40;80.86
82171;BME280;71755;48.038;14.346;2023-09-08T01:08:04;97717.34;;;13.45;80.57
82171;BME280;71755;48.038;14.346;2023-09-08T01:10:31;97713.72;;;13.72;79.04
82171;BME280;71755;48.038;14.346;2023-09-08T01:12:58;97712.22;;;13.86;78.87
82171;BME280;71755;48.038;14.346;2023-09-08T01:15:23;97707.50;;;14.14;77.47
82171;BME280;71755;48.038;14.346;2023-09-08T01:17:50;97704.00;;;14.13;77.08
82171;BME280;71755;48.038;14.346;2023-09-08T01:20:24;97704.25;;;14.12;77.44
82171;BME280;71755;48.038;14.346;2023-09-08T01:23:10;97708.22;;;13.94;77.77
82171;BME280;71755;48.038;14.346;2023-09-08T01:28:16;97707.44;;;13.46;79.43
82171;BME280;71755;48.038;14.346;2023-09-08T01:30:43;97709.81;;;13.42;79.10
82171;BME280;71755;48.038;14.346;2023-09-08T01:33:10;97708.22;;;13.09;80.66
82171;BME280;71755;48.038;14.346;2023-09-08T01:35:36;97710.78;;;12.99;81.64
82171;BME280;71755;48.038;14.346;2023-09-08T01:38:02;97712.78;;;12.82;82.15
82171;BME280;71755;48.038;14.346;2023-09-08T01:40:29;97712.84;;;12.60;83.02
82171;BME280;71755;48.038;14.346;2023-09-08T01:42:55;97710.16;;;12.60;82.77
82171;BME280;71755;48.038;14.346;2023-09-08T01:45:21;97714.41;;;12.83;82.15
82171;BME280;71755;48.038;14.346;2023-09-08T01:47:46;97707.00;;;12.95;81.49
82171;BME280;71755;48.038;14.346;2023-09-08T01:50:12;97706.06;;;13.11;80.46
82171;BME280;71755;48.038;14.346;2023-09-08T01:52:38;97712.47;;;13.05;80.22
82171;BME280;71755;48.038;14.346;2023-09-08T01:55:05;97705.22;;;13.06;80.63
82171;BME280;71755;48.038;14.346;2023-09-08T01:57:33;97707.19;;;13.15;80.19
82171;BME280;71755;48.038;14.346;2023-09-08T01:59:59;97707.53;;;13.24;79.20
82171;BME280;71755;48.038;14.346;2023-09-08T02:02:25;97709.69;;;12.95;80.28
82171;BME280;71755;48.038;14.346;2023-09-08T02:04:51;97716.78;;;12.79;81.08
82171;BME280;71755;48.038;14.346;2023-09-08T02:07:17;97713.56;;;13.09;79.90
82171;BME280;71755;48.038;14.346;2023-09-08T02:09:44;97715.31;;;12.94;80.32
82171;BME280;71755;48.038;14.346;2023-09-08T02:12:09;97712.66;;;12.99;80.41
82171;BME280;71755;48.038;14.346;2023-09-08T02:14:36;97714.38;;;13.10;79.58
82171;BME280;71755;48.038;14.346;2023-09-08T02:17:03;97712.84;;;12.87;79.84
82171;BME280;71755;48.038;14.346;2023-09-08T02:19:29;97717.56;;;12.75;80.44
82171;BME280;71755;48.038;14.346;2023-09-08T02:21:56;97715.34;;;12.18;82.80
82171;BME280;71755;48.038;14.346;2023-09-08T02:24:22;97719.09;;;11.95;83.68
82171;BME280;71755;48.038;14.346;2023-09-08T02:26:49;97715.56;;;11.89;84.27
82171;BME280;71755;48.038;14.346;2023-09-08T02:29:15;97726.28;;;11.89;84.10
82171;BME280;71755;48.038;14.346;2023-09-08T02:31:41;97718.41;;;12.05;83.66
82171;BME280;71755;48.038;14.346;2023-09-08T02:34:08;97716.97;;;12.19;82.70
82171;BME280;71755;48.038;14.346;2023-09-08T02:36:33;97720.66;;;12.13;82.84
82171;BME280;71755;48.038;14.346;2023-09-08T02:38:59;97721.25;;;12.20;82.22
82171;BME280;71755;48.038;14.346;2023-09-08T02:41:25;97724.16;;;11.92;83.29
82171;BME280;71755;48.038;14.346;2023-09-08T02:43:51;97720.41;;;11.93;82.88
82171;BME280;71755;48.038;14.346;2023-09-08T02:46:16;97726.06;;;12.18;81.89
82171;BME280;71755;48.038;14.346;2023-09-08T02:48:42;97723.00;;;11.87;83.15
82171;BME280;71755;48.038;14.346;2023-09-08T02:51:09;97728.94;;;11.89;83.05
82171;BME280;71755;48.038;14.346;2023-09-08T02:53:35;97725.38;;;12.06;82.79
82171;BME280;71755;48.038;14.346;2023-09-08T02:56:01;97723.13;;;12.41;80.57
82171;BME280;71755;48.038;14.346;2023-09-08T02:58:29;97719.78;;;12.29;81.23
82171;BME280;71755;48.038;14.346;2023-09-08T03:00:56;97715.63;;;11.95;82.62
82171;BME280;71755;48.038;14.346;2023-09-08T03:03:22;97719.34;;;11.94;83.04
82171;BME280;71755;48.038;14.346;2023-09-08T03:05:48;97719.75;;;11.85;83.00
82171;BME280;71755;48.038;14.346;2023-09-08T03:08:19;97725.63;;;11.82;82.91
82171;BME280;71755;48.038;14.346;2023-09-08T03:10:45;97724.31;;;11.85;82.77
82171;BME280;71755;48.038;14.346;2023-09-08T03:13:12;97727.78;;;11.85;82.84
82171;BME280;71755;48.038;14.346;2023-09-08T03:15:37;97721.59;;;12.02;81.60
82171;BME280;71755;48.038;14.346;2023-09-08T03:18:04;97725.34;;;12.01;81.29
82171;BME280;71755;48.038;14.346;2023-09-08T03:20:30;97727.63;;;11.92;82.01
82171;BME280;71755;48.038;14.346;2023-09-08T03:22:56;97726.13;;;11.63;82.57
82171;BME280;71755;48.038;14.346;2023-09-08T03:25:22;97724.41;;;11.35;83.65
82171;BME280;71755;48.038;14.346;2023-09-08T03:27:48;97722.13;;;11.10;84.92
82171;BME280;71755;48.038;14.346;2023-09-08T03:30:14;97726.34;;;11.06;85.14
82171;BME280;71755;48.038;14.346;2023-09-08T03:32:40;97723.91;;;11.04;85.41
82171;BME280;71755;48.038;14.346;2023-09-08T03:35:06;97723.44;;;11.07;84.78
82171;BME280;71755;48.038;14.346;2023-09-08T03:37:34;97724.25;;;10.91;85.00
82171;BME280;71755;48.038;14.346;2023-09-08T03:40:00;97742.97;;;10.62;86.13
82171;BME280;71755;48.038;14.346;2023-09-08T03:42:26;97731.25;;;10.63;86.67
82171;BME280;71755;48.038;14.346;2023-09-08T03:44:51;97735.34;;;10.54;86.88
82171;BME280;71755;48.038;14.346;2023-09-08T03:47:18;97739.75;;;10.60;86.98
82171;BME280;71755;48.038;14.346;2023-09-08T03:49:44;97738.03;;;10.54;86.74
82171;BME280;71755;48.038;14.346;2023-09-08T03:52:10;97736.97;;;10.55;87.11
82171;BME280;71755;48.038;14.346;2023-09-08T03:54:36;97732.28;;;10.62;86.55
82171;BME280;71755;48.038;14.346;2023-09-08T03:57:03;97738.75;;;10.50;86.90
82171;BME280;71755;48.038;14.346;2023-09-08T03:59:29;97746.75;;;10.50;86.81
82171;BME280;71755;48.038;14.346;2023-09-08T04:01:55;97745.75;;;10.39;87.38
82171;BME280;71755;48.038;14.346;2023-09-08T04:04:22;97740.31;;;10.34;87.19
82171;BME280;71755;48.038;14.346;2023-09-08T04:06:48;97743.19;;;10.44;86.72
82171;BME280;71755;48.038;14.346;2023-09-08T04:09:14;97744.25;;;10.43;86.83
82171;BME280;71755;48.038;14.346;2023-09-08T04:11:41;97744.03;;;10.33;87.02
82171;BME280;71755;48.038;14.346;2023-09-08T04:14:06;97744.75;;;10.17;87.51
82171;BME280;71755;48.038;14.346;2023-09-08T04:16:32;97752.28;;;10.20;87.46
82171;BME280;71755;48.038;14.346;2023-09-08T04:18:58;97759.16;;;10.16;87.64
82171;BME280;71755;48.038;14.346;2023-09-08T04:21:24;97752.84;;;10.33;86.99
82171;BME280;71755;48.038;14.346;2023-09-08T04:23:51;97763.19;;;10.42;86.27
82171;BME280;71755;48.038;14.346;2023-09-08T04:26:17;97764.84;;;10.76;85.24
82171;BME280;71755;48.038;14.346;2023-09-08T04:28:43;97760.13;;;10.95;83.58
82171;BME280;71755;48.038;14.346;2023-09-08T04:31:09;97771.06;;;11.10;83.46
82171;BME280;71755;48.038;14.346;2023-09-08T04:33:35;97762.47;;;10.91;83.44
82171;BME280;71755;48.038;14.346;2023-09-08T04:36:01;97763.03;;;11.10;82.86
82171;BME280;71755;48.038;14.346;2023-09-08T04:38:26;97765.38;;;11.07;82.37
82171;BME280;71755;48.038;14.346;2023-09-08T04:40:53;97768.22;;;10.83;83.22
82171;BME280;71755;48.038;14.346;2023-09-08T04:43:18;97779.06;;;10.48;84.92
82171;BME280;71755;48.038;14.346;2023-09-08T04:45:45;97772.25;;;10.41;85.37
82171;BME280;71755;48.038;14.346;2023-09-08T04:48:10;97773.00;;;10.53;85.16
82171;BME280;71755;48.038;14.346;2023-09-08T04:50:36;97777.28;;;10.54;85.25
82171;BME280;71755;48.038;14.346;2023-09-08T04:53:03;97780.25;;;10.29;85.96
82171;BME280;71755;48.038;14.346;2023-09-08T04:55:29;97782.13;;;10.17;86.95
82171;BME280;71755;48.038;14.346;2023-09-08T04:57:55;97781.63;;;10.43;85.83
82171;BME280;71755;48.038;14.346;2023-09-08T05:00:21;97788.50;;;10.68;85.04
82171;BME280;71755;48.038;14.346;2023-09-08T05:02:47;97789.69;;;11.05;85.24
82171;BME280;71755;48.038;14.346;2023-09-08T05:05:13;97788.44;;;11.24;84.17
82171;BME280;71755;48.038;14.346;2023-09-08T05:07:39;97792.19;;;11.12;82.10
82171;BME280;71755;48.038;14.346;2023-09-08T05:10:05;97790.97;;;10.86;83.49
82171;BME280;71755;48.038;14.346;2023-09-08T05:12:31;97789.69;;;10.60;84.69
82171;BME280;71755;48.038;14.346;2023-09-08T05:14:57;97791.41;;;10.66;84.70
82171;BME280;71755;48.038;14.346;2023-09-08T05:17:31;97799.03;;;10.74;84.35
82171;BME280;71755;48.038;14.346;2023-09-08T05:19:58;97806.69;;;10.82;84.35
82171;BME280;71755;48.038;14.346;2023-09-08T05:22:24;97803.13;;;10.65;84.93
82171;BME280;71755;48.038;14.346;2023-09-08T05:24:50;97805.47;;;10.61;85.39
82171;BME280;71755;48.038;14.346;2023-09-08T05:27:16;97804.19;;;10.64;85.27
82171;BME280;71755;48.038;14.346;2023-09-08T05:29:41;97802.56;;;10.63;85.46
82171;BME280;71755;48.038;14.346;2023-09-08T05:32:07;97799.66;;;10.64;85.73
82171;BME280;71755;48.038;14.346;2023-09-08T05:34:33;97802.28;;;10.76;85.42
82171;BME280;71755;48.038;14.346;2023-09-08T05:36:59;97805.31;;;10.80;85.03
82171;BME280;71755;48.038;14.346;2023-09-08T05:39:24;97803.06;;;10.77;85.66
82171;BME280;71755;48.038;14.346;2023-09-08T05:41:50;97810.88;;;10.78;86.17
82171;BME280;71755;48.038;14.346;2023-09-08T05:44:16;97809.03;;;10.79;86.44
82171;BME280;71755;48.038;14.346;2023-09-08T05:46:42;97807.19;;;10.96;85.56
82171;BME280;71755;48.038;14.346;2023-09-08T05:49:08;97815.78;;;10.98;85.64
82171;BME280;71755;48.038;14.346;2023-09-08T05:51:34;97808.97;;;11.07;85.51
82171;BME280;71755;48.038;14.346;2023-09-08T05:54:00;97810.31;;;11.21;84.88
82171;BME280;71755;48.038;14.346;2023-09-08T05:56:33;97813.53;;;11.23;83.23
82171;BME280;71755;48.038;14.346;2023-09-08T05:58:59;97814.59;;;11.22;83.67
82171;BME280;71755;48.038;14.346;2023-09-08T06:01:27;97812.72;;;11.40;83.79
82171;BME280;71755;48.038;14.346;2023-09-08T06:03:53;97813.63;;;11.62;83.29
82171;BME280;71755;48.038;14.346;2023-09-08T06:06:20;97812.00;;;11.78;82.76
82171;BME280;71755;48.038;14.346;2023-09-08T06:08:47;97820.34;;;11.98;83.91
82171;BME280;71755;48.038;14.346;2023-09-08T06:11:13;97819.53;;;11.98;82.69
82171;BME280;71755;48.038;14.346;2023-09-08T06:13:39;97827.13;;;12.06;82.29
82171;BME280;71755;48.038;14.346;2023-09-08T06:16:05;97827.78;;;12.13;81.61
82171;BME280;71755;48.038;14.346;2023-09-08T06:18:31;97819.28;;;12.21;81.65
82171;BME280;71755;48.038;14.346;2023-09-08T06:20:57;97823.69;;;12.27;79.68
82171;BME280;71755;48.038;14.346;2023-09-08T06:23:24;97827.03;;;12.39;79.48
82171;BME280;71755;48.038;14.346;2023-09-08T06:25:50;97824.53;;;12.55;78.69
82171;BME280;71755;48.038;14.346;2023-09-08T06:28:15;97822.81;;;12.65;77.29
82171;BME280;71755;48.038;14.346;2023-09-08T06:30:42;97817.84;;;12.79;76.50
82171;BME280;71755;48.038;14.346;2023-09-08T06:33:08;97814.97;;;12.86;76.38
82171;BME280;71755;48.038;14.346;2023-09-08T06:35:35;97820.72;;;12.99;75.74
82171;BME280;71755;48.038;14.346;2023-09-08T06:38:00;97814.94;;;13.07;74.87
82171;BME280;71755;48.038;14.346;2023-09-08T06:40:29;97816.75;;;13.29;73.88
82171;BME280;71755;48.038;14.346;2023-09-08T06:42:55;97820.09;;;13.41;73.47
82171;BME280;71755;48.038;14.346;2023-09-08T06:45:21;97825.28;;;13.53;73.94
82171;BME280;71755;48.038;14.346;2023-09-08T06:47:47;97824.53;;;13.62;73.04
82171;BME280;71755;48.038;14.346;2023-09-08T06:50:15;97819.31;;;13.77;73.36
82171;BME280;71755;48.038;14.346;2023-09-08T06:52:41;97821.53;;;13.91;73.94
82171;BME280;71755;48.038;14.346;2023-09-08T06:55:08;97817.81;;;14.02;73.78
82171;BME280;71755;48.038;14.346;2023-09-08T06:57:35;97819.00;;;14.16;73.68
82171;BME280;71755;48.038;14.346;2023-09-08T07:00:02;97817.97;;;14.27;73.46
82171;BME280;71755;48.038;14.346;2023-09-08T07:02:32;97823.44;;;14.43;73.47
82171;BME280;71755;48.038;14.346;2023-09-08T07:04:58;97820.28;;;14.51;72.84
82171;BME280;71755;48.038;14.346;2023-09-08T07:07:24;97820.03;;;14.62;72.87
82171;BME280;71755;48.038;14.346;2023-09-08T07:09:50;97822.19;;;14.65;72.91
82171;BME280;71755;48.038;14.346;2023-09-08T07:12:19;97818.72;;;14.80;73.66
82171;BME280;71755;48.038;14.346;2023-09-08T07:14:45;97821.47;;;14.95;73.00
82171;BME280;71755;48.038;14.346;2023-09-08T07:17:11;97826.88;;;15.06;72.40
82171;BME280;71755;48.038;14.346;2023-09-08T07:19:37;97820.41;;;15.12;71.93
82171;BME280;71755;48.038;14.346;2023-09-08T07:22:03;97823.69;;;15.24;71.53
82171;BME280;71755;48.038;14.346;2023-09-08T07:24:30;97823.69;;;15.29;72.80
82171;BME280;71755;48.038;14.346;2023-09-08T07:26:56;97820.72;;;15.41;72.77
82171;BME280;71755;48.038;14.346;2023-09-08T07:29:22;97817.75;;;15.57;73.23
82171;BME280;71755;48.038;14.346;2023-09-08T07:31:48;97822.66;;;15.71;72.23
82171;BME280;71755;48.038;14.346;2023-09-08T07:34:14;97822.34;;;15.87;72.24
82171;BME280;71755;48.038;14.346;2023-09-08T07:36:40;97823.69;;;16.05;72.12
82171;BME280;71755;48.038;14.346;2023-09-08T07:39:06;97818.50;;;16.24;71.04
82171;BME280;71755;48.038;14.346;2023-09-08T07:41:32;97813.63;;;16.31;69.85
82171;BME280;71755;48.038;14.346;2023-09-08T07:43:58;97815.22;;;16.42;70.02
82171;BME280;71755;48.038;14.346;2023-09-08T07:46:24;97809.00;;;16.42;69.87
82171;BME280;71755;48.038;14.346;2023-09-08T07:48:50;97808.44;;;16.50;70.26
82171;BME280;71755;48.038;14.346;2023-09-08T07:51:16;97817.03;;;16.57;69.21
82171;BME280;71755;48.038;14.346;2023-09-08T07:53:42;97817.53;;;16.69;69.35
82171;BME280;71755;48.038;14.346;2023-09-08T07:56:08;97821.22;;;16.88;68.77
82171;BME280;71755;48.038;14.346;2023-09-08T07:58:34;97821.41;;;17.02;68.28
82171;BME280;71755;48.038;14.346;2023-09-08T08:01:00;97814.59;;;17.15;67.30
82171;BME280;71755;48.038;14.346;2023-09-08T08:03:26;97817.09;;;17.40;67.28
82171;BME280;71755;48.038;14.346;2023-09-08T08:05:51;97815.09;;;17.56;66.36
82171;BME280;71755;48.038;14.346;2023-09-08T08:08:17;97812.06;;;17.68;65.11
82171;BME280;71755;48.038;14.346;2023-09-08T08:10:44;97810.00;;;17.84;64.77
82171;BME280;71755;48.038;14.346;2023-09-08T08:13:10;97811.53;;;17.95;65.08
82171;BME280;71755;48.038;14.346;2023-09-08T08:15:37;97802.34;;;18.20;63.58
82171;BME280;71755;48.038;14.346;2023-09-08T08:18:05;97810.22;;;18.40;63.57
82171;BME280;71755;48.038;14.346;2023-09-08T08:20:32;97806.72;;;18.39;64.39
82171;BME280;71755;48.038;14.346;2023-09-08T08:23:05;97800.97;;;18.46;62.30
82171;BME280;71755;48.038;14.346;2023-09-08T08:25:31;97799.13;;;18.65;62.85
82171;BME280;71755;48.038;14.346;2023-09-08T08:27:58;97794.09;;;18.78;61.82
82171;BME280;71755;48.038;14.346;2023-09-08T08:30:27;97794.47;;;18.90;60.73
82171;BME280;71755;48.038;14.346;2023-09-08T08:32:53;97792.06;;;19.07;60.97
82171;BME280;71755;48.038;14.346;2023-09-08T08:35:20;97784.28;;;19.19;60.14
82171;BME280;71755;48.038;14.346;2023-09-08T08:37:46;97787.00;;;19.19;60.22
82171;BME280;71755;48.038;14.346;2023-09-08T08:40:12;97784.63;;;19.31;60.59
82171;BME280;71755;48.038;14.346;2023-09-08T08:42:39;97785.34;;;19.56;60.70
82171;BME280;71755;48.038;14.346;2023-09-08T08:45:06;97782.63;;;19.75;59.83
82171;BME280;71755;48.038;14.346;2023-09-08T08:47:32;97780.31;;;19.95;61.04
82171;BME280;71755;48.038;14.346;2023-09-08T08:50:00;97783.16;;;20.18;60.52
82171;BME280;71755;48.038;14.346;2023-09-08T08:52:27;97779.47;;;20.41;56.90
82171;BME280;71755;48.038;14.346;2023-09-08T08:54:54;97770.03;;;20.52;56.70
82171;BME280;71755;48.038;14.346;2023-09-08T08:57:24;97775.72;;;20.37;59.14
82171;BME280;71755;48.038;14.346;2023-09-08T08:59:52;97785.38;;;20.43;58.05
82171;BME280;71755;48.038;14.346;2023-09-08T09:02:19;97773.72;;;20.43;57.96
82171;BME280;71755;48.038;14.346;2023-09-08T09:04:45;97776.09;;;20.85;56.94
82171;BME280;71755;48.038;14.346;2023-09-08T09:07:12;97785.06;;;21.08;55.63
82171;BME280;71755;48.038;14.346;2023-09-08T09:09:39;97786.50;;;21.06;57.04
82171;BME280;71755;48.038;14.346;2023-09-08T09:12:06;97784.41;;;21.03;56.60
82171;BME280;71755;48.038;14.346;2023-09-08T09:14:33;97780.63;;;21.12;55.58
82171;BME280;71755;48.038;14.346;2023-09-08T09:17:01;97776.41;;;21.20;56.72
82171;BME280;71755;48.038;14.346;2023-09-08T09:19:30;97777.84;;;21.40;56.74
82171;BME280;71755;48.038;14.346;2023-09-08T09:21:58;97775.84;;;21.54;56.61
82171;BME280;71755;48.038;14.346;2023-09-08T09:24:39;97773.09;;;21.68;55.89
82171;BME280;71755;48.038;14.346;2023-09-08T09:27:11;97762.56;;;21.75;53.25
82171;BME280;71755;48.038;14.346;2023-09-08T09:29:49;97765.63;;;21.82;55.67
82171;BME280;71755;48.038;14.346;2023-09-08T09:32:16;97771.75;;;21.88;55.66
82171;BME280;71755;48.038;14.346;2023-09-08T09:34:50;97761.16;;;21.86;54.28
82171;BME280;71755;48.038;14.346;2023-09-08T09:37:19;97763.72;;;22.13;54.42
82171;BME280;71755;48.038;14.346;2023-09-08T09:39:53;97761.44;;;22.38;53.73
82171;BME280;71755;48.038;14.346;2023-09-08T09:42:21;97753.75;;;22.49;52.24
82171;BME280;71755;48.038;14.346;2023-09-08T09:44:56;97746.28;;;22.71;53.18
82171;BME280;71755;48.038;14.346;2023-09-08T09:47:23;97750.56;;;22.55;53.10
82171;BME280;71755;48.038;14.346;2023-09-08T09:49:49;97746.00;;;22.82;52.40
82171;BME280;71755;48.038;14.346;2023-09-08T09:52:24;97748.88;;;22.94;52.94
82171;BME280;71755;48.038;14.346;2023-09-08T09:54:55;97748.41;;;22.92;52.53
82171;BME280;71755;48.038;14.346;2023-09-08T09:57:22;97747.75;;;22.95;51.91
82171;BME280;71755;48.038;14.346;2023-09-08T09:59:49;97748.72;;;23.25;50.50
82171;BME280;71755;48.038;14.346;2023-09-08T10:02:18;97738.13;;;23.32;50.52
82171;BME280;71755;48.038;14.346;2023-09-08T10:04:50;97742.63;;;23.45;51.08
82171;BME280;71755;48.038;14.346;2023-09-08T10:07:18;97737.03;;;23.42;52.48
82171;BME280;71755;48.038;14.346;2023-09-08T10:09:44;97734.59;;;23.57;48.95
82171;BME280;71755;48.038;14.346;2023-09-08T10:12:13;97728.28;;;23.74;50.67
82171;BME280;71755;48.038;14.346;2023-09-08T10:14:43;97725.84;;;23.90;50.70
82171;BME280;71755;48.038;14.346;2023-09-08T10:17:15;97728.97;;;24.09;48.22
82171;BME280;71755;48.038;14.346;2023-09-08T10:19:47;97723.94;;;24.20;48.09
82171;BME280;71755;48.038;14.346;2023-09-08T10:22:20;97718.69;;;24.06;51.92
82171;BME280;71755;48.038;14.346;2023-09-08T10:24:50;97719.28;;;24.20;48.62
82171;BME280;71755;48.038;14.346;2023-09-08T10:27:20;97721.22;;;24.20;49.57
82171;BME280;71755;48.038;14.346;2023-09-08T10:29:47;97717.22;;;24.47;48.07
82171;BME280;71755;48.038;14.346;2023-09-08T10:32:14;97715.44;;;24.51;47.51
82171;BME280;71755;48.038;14.346;2023-09-08T10:34:42;97712.00;;;24.62;45.14
82171;BME280;71755;48.038;14.346;2023-09-08T10:37:23;97715.19;;;24.85;46.16
82171;BME280;71755;48.038;14.346;2023-09-08T10:39:56;97716.19;;;24.60;47.52
82171;BME280;71755;48.038;14.346;2023-09-08T10:42:43;97705.69;;;24.91;46.42
82171;BME280;71755;48.038;14.346;2023-09-08T10:45:17;97711.69;;;25.06;44.64
82171;BME280;71755;48.038;14.346;2023-09-08T10:50:16;97705.81;;;25.16;45.84
82171;BME280;71755;48.038;14.346;2023-09-08T10:52:43;97698.19;;;25.21;44.85
82171;BME280;71755;48.038;14.346;2023-09-08T10:55:11;97697.50;;;25.24;45.17
82171;BME280;71755;48.038;14.346;2023-09-08T10:57:44;97699.91;;;25.26;45.87
82171;BME280;71755;48.038;14.346;2023-09-08T11:00:17;97689.28;;;25.45;46.89
82171;BME280;71755;48.038;14.346;2023-09-08T11:02:50;97690.78;;;25.55;48.19
82171;BME280;71755;48.038;14.346;2023-09-08T11:05:16;97684.25;;;25.68;47.40
82171;BME280;71755;48.038;14.346;2023-09-08T11:07:45;97685.88;;;25.48;47.06
82171;BME280;71755;48.038;14.346;2023-09-08T11:10:12;97682.75;;;25.83;48.30
82171;BME280;71755;48.038;14.346;2023-09-08T11:12:38;97676.72;;;25.77;49.35
82171;BME280;71755;48.038;14.346;2023-09-08T11:15:06;97683.56;;;25.83;44.27
82171;BME280;71755;48.038;14.346;2023-09-08T11:17:35;97683.22;;;25.97;42.56
82171;BME280;71755;48.038;14.346;2023-09-08T11:20:03;97681.97;;;25.95;46.11
82171;BME280;71755;48.038;14.346;2023-09-08T11:22:35;97681.84;;;25.91;47.32
82171;BME280;71755;48.038;14.346;2023-09-08T11:25:02;97675.47;;;26.24;44.03
82171;BME280;71755;48.038;14.346;2023-09-08T11:27:32;97672.28;;;26.34;47.14
82171;BME280;71755;48.038;14.346;2023-09-08T11:29:59;97667.25;;;26.48;46.54
82171;BME280;71755;48.038;14.346;2023-09-08T11:32:25;97669.84;;;26.57;46.16
82171;BME280;71755;48.038;14.346;2023-09-08T11:35:07;97678.47;;;26.43;45.96
82171;BME280;71755;48.038;14.346;2023-09-08T11:37:36;97669.25;;;26.63;43.73
82171;BME280;71755;48.038;14.346;2023-09-08T11:40:08;97674.78;;;26.51;49.27
82171;BME280;71755;48.038;14.346;2023-09-08T11:42:35;97670.41;;;26.62;44.80
82171;BME280;71755;48.038;14.346;2023-09-08T11:45:02;97664.78;;;26.83;44.83
82171;BME280;71755;48.038;14.346;2023-09-08T11:47:30;97664.69;;;26.67;45.07
82171;BME280;71755;48.038;14.346;2023-09-08T11:49:58;97669.22;;;26.75;46.79
82171;BME280;71755;48.038;14.346;2023-09-08T11:52:24;97664.16;;;26.90;47.73
82171;BME280;71755;48.038;14.346;2023-09-08T11:54:51;97663.13;;;26.94;44.22
82171;BME280;71755;48.038;14.346;2023-09-08T11:57:17;97663.16;;;27.22;45.51
82171;BME280;71755;48.038;14.346;2023-09-08T11:59:44;97659.22;;;26.95;45.33
82171;BME280;71755;48.038;14.346;2023-09-08T12:02:14;97663.28;;;26.86;44.92
82171;BME280;71755;48.038;14.346;2023-09-08T12:04:40;97656.19;;;27.13;45.05
82171;BME280;71755;48.038;14.346;2023-09-08T12:07:12;97652.00;;;27.15;43.71
82171;BME280;71755;48.038;14.346;2023-09-08T12:09:42;97656.28;;;27.44;42.35
82171;BME280;71755;48.038;14.346;2023-09-08T12:12:12;97650.69;;;27.40;42.77
82171;BME280;71755;48.038;14.346;2023-09-08T12:14:42;97655.88;;;27.58;42.28
82171;BME280;71755;48.038;14.346;2023-09-08T12:17:08;97645.53;;;27.67;43.39
82171;BME280;71755;48.038;14.346;2023-09-08T12:19:35;97643.13;;;27.65;42.52
82171;BME280;71755;48.038;14.346;2023-09-08T12:22:06;97649.25;;;27.90;40.00
82171;BME280;71755;48.038;14.346;2023-09-08T12:27:22;97637.91;;;27.76;42.04
82171;BME280;71755;48.038;14.346;2023-09-08T12:29:59;97642.63;;;27.48;43.63
82171;BME280;71755;48.038;14.346;2023-09-08T12:32:29;97627.72;;;27.61;43.19
82171;BME280;71755;48.038;14.346;2023-09-08T12:34:56;97632.09;;;27.50;41.88
82171;BME280;71755;48.038;14.346;2023-09-08T12:37:23;97634.03;;;27.61;42.66
82171;BME280;71755;48.038;14.346;2023-09-08T12:39:50;97625.34;;;27.75;42.35
82171;BME280;71755;48.038;14.346;2023-09-08T12:42:18;97622.47;;;27.87;43.65
82171;BME280;71755;48.038;14.346;2023-09-08T12:44:45;97623.63;;;28.02;43.78
82171;BME280;71755;48.038;14.346;2023-09-08T12:47:12;97624.34;;;27.99;41.31
82171;BME280;71755;48.038;14.346;2023-09-08T12:49:39;97621.16;;;27.97;41.30
82171;BME280;71755;48.038;14.346;2023-09-08T12:52:05;97620.56;;;28.23;41.83
82171;BME280;71755;48.038;14.346;2023-09-08T12:54:32;97618.41;;;28.48;39.45
82171;BME280;71755;48.038;14.346;2023-09-08T12:56:58;97617.63;;;28.67;38.46
82171;BME280;71755;48.038;14.346;2023-09-08T12:59:24;97611.13;;;28.05;41.19